This is the latest recevied weather packets stored in our database for station/object NI4CE-11. If no packets are shown the sender has not sent any weather packets the latest 10 day(s).
| Time | Temp. | Humidity | Pressure | Rain* | Wind** | Luminosity | Snow |
|---|---|---|---|---|---|---|---|
| 1777880695 | 18.89° C | 100% | 1016.1 hPa | 0 mm | - | - | - |
| 1777880480 | 20° C | 100% | 1016.4 hPa | 0 mm | - | - | - |
| 1777880395 | 19.44° C | 100% | 1016.3 hPa | 0 mm | - | - | - |
| 1777880095 | 20° C | 100% | 1016.4 hPa | 0 mm | - | - | - |
| 1777879817 | 20° C | 100% | 1016.5 hPa | 0 mm | - | - | - |
| 1777879795 | 19.44° C | 100% | 1016.5 hPa | 0 mm | - | - | - |
| 1777879597 | 20° C | 100% | 1016.5 hPa | 0 mm | - | - | - |
| 1777879495 | 20° C | 100% | 1016.5 hPa | 0 mm | - | - | - |
| 1777879296 | 20° C | 100% | 1016.4 hPa | 0 mm | - | - | - |
| 1777879195 | 20° C | 100% | 1016.5 hPa | 0 mm | - | - | - |
| 1777878895 | 19.44° C | 100% | 1016.5 hPa | 0 mm | - | - | - |
| 1777878599 | 18.89° C | 100% | 1016.4 hPa | 0 mm | - | - | - |
| 1777878595 | 20° C | 100% | 1016.4 hPa | 0 mm | - | - | - |
| 1777878295 | 18.89° C | 100% | 1016.4 hPa | 0 mm | - | - | - |
| 1777878290 | 19.44° C | 100% | 1016.5 hPa | 0 mm | - | - | - |
| 1777877995 | 19.44° C | 100% | 1016.5 hPa | 0 mm | - | - | - |
| 1777877976 | 19.44° C | 100% | 1016.4 hPa | 0 mm | - | - | - |
| 1777877695 | 19.44° C | 100% | 1016.4 hPa | 0 mm | - | - | - |
| 1777877396 | 19.44° C | 100% | 1016.5 hPa | 0 mm | - | - | - |
| 1777877316 | 19.44° C | 100% | 1016.5 hPa | 0 mm | - | - | - |
| 1777877095 | 19.44° C | 100% | 1016.5 hPa | 0 mm | - | - | - |
| 1777876896 | 18.89° C | 100% | 1016.2 hPa | 0 mm | - | - | - |
| 1777876796 | 19.44° C | 100% | 1016.3 hPa | 0 mm | - | - | - |
| 1777876496 | 18.89° C | 100% | 1016.2 hPa | 0 mm | - | - | - |
| 1777876196 | 18.89° C | 100% | 1016.2 hPa | 0 mm | - | - | - |
* Rain latest hour (hover to see other rain measurements)
** Current wind speed in m/s (hover to see current wind gust speed)